Champion, Indiana
Current Conditions -  °F | °C
As of 4:53 PM on Wednesday 28 Jan 2015 (Local Time) from KHUF Reporting Station
Clear Clear  
Wind Chill: 29°   Ceiling: Unl
Heat Index: 37°   Visibility: 10mi
Dew Point: 19°   Wind: 13mph
Humidity: 48%   Direction: 150°SSE
Pressure: 30.15"   Gusts: NA
Location:  39.5107°N, 87.4772°W
Report Text: KHUF 282153Z 15011KT 10SM CLR 03/M07 A3015 RMK AO2 SLP215 T00281072
Loading
Personal Weather Stations






























Interactive Weather Map New forecast layout! Learn more

10-Day Weather Forecast

Advertisements
Track Severe Weather on mobile